sensor_id;sensor_type;location;lat;lon;timestamp;P1;durP1;ratioP1;P2;durP2;ratioP2
19671;SDS011;9983;51.114;13.788;2023-08-07T00:00:28;6.20;;;5.07;;
19671;SDS011;9983;51.114;13.788;2023-08-07T00:05:29;4.23;;;3.83;;
19671;SDS011;9983;51.114;13.788;2023-08-07T00:10:30;4.63;;;4.28;;
19671;SDS011;9983;51.114;13.788;2023-08-07T00:15:30;4.35;;;4.05;;
19671;SDS011;9983;51.114;13.788;2023-08-07T00:20:30;6.25;;;4.63;;
19671;SDS011;9983;51.114;13.788;2023-08-07T00:25:31;5.72;;;5.10;;
19671;SDS011;9983;51.114;13.788;2023-08-07T00:30:31;4.45;;;4.05;;
19671;SDS011;9983;51.114;13.788;2023-08-07T00:35:31;4.85;;;4.38;;
19671;SDS011;9983;51.114;13.788;2023-08-07T00:40:38;4.68;;;4.35;;
19671;SDS011;9983;51.114;13.788;2023-08-07T00:45:42;5.10;;;4.72;;
19671;SDS011;9983;51.114;13.788;2023-08-07T00:50:44;4.88;;;4.40;;
19671;SDS011;9983;51.114;13.788;2023-08-07T00:55:46;5.45;;;4.70;;
19671;SDS011;9983;51.114;13.788;2023-08-07T01:00:46;4.80;;;4.40;;
19671;SDS011;9983;51.114;13.788;2023-08-07T01:05:47;4.93;;;4.55;;
19671;SDS011;9983;51.114;13.788;2023-08-07T01:15:59;5.53;;;4.57;;
19671;SDS011;9983;51.114;13.788;2023-08-07T01:21:07;5.50;;;4.60;;
19671;SDS011;9983;51.114;13.788;2023-08-07T01:26:18;5.38;;;4.30;;
19671;SDS011;9983;51.114;13.788;2023-08-07T01:31:20;4.22;;;3.92;;
19671;SDS011;9983;51.114;13.788;2023-08-07T01:36:24;4.03;;;3.72;;
19671;SDS011;9983;51.114;13.788;2023-08-07T01:41:27;4.20;;;3.80;;
19671;SDS011;9983;51.114;13.788;2023-08-07T01:46:28;4.15;;;3.85;;
19671;SDS011;9983;51.114;13.788;2023-08-07T01:51:28;5.25;;;4.80;;
19671;SDS011;9983;51.114;13.788;2023-08-07T01:56:28;5.97;;;5.38;;
19671;SDS011;9983;51.114;13.788;2023-08-07T02:01:29;6.20;;;5.70;;
19671;SDS011;9983;51.114;13.788;2023-08-07T02:06:29;6.70;;;6.17;;
19671;SDS011;9983;51.114;13.788;2023-08-07T02:11:29;7.28;;;6.40;;
19671;SDS011;9983;51.114;13.788;2023-08-07T02:16:30;8.40;;;7.32;;
19671;SDS011;9983;51.114;13.788;2023-08-07T02:21:31;9.02;;;8.13;;
19671;SDS011;9983;51.114;13.788;2023-08-07T02:26:31;8.35;;;7.32;;
19671;SDS011;9983;51.114;13.788;2023-08-07T02:31:32;9.02;;;7.70;;
19671;SDS011;9983;51.114;13.788;2023-08-07T02:36:32;8.52;;;7.22;;
19671;SDS011;9983;51.114;13.788;2023-08-07T02:41:32;9.00;;;7.93;;
19671;SDS011;9983;51.114;13.788;2023-08-07T02:46:33;8.40;;;7.60;;
19671;SDS011;9983;51.114;13.788;2023-08-07T02:51:35;8.23;;;7.53;;
19671;SDS011;9983;51.114;13.788;2023-08-07T02:56:36;8.63;;;7.50;;
19671;SDS011;9983;51.114;13.788;2023-08-07T03:01:36;9.27;;;7.57;;
19671;SDS011;9983;51.114;13.788;2023-08-07T03:06:37;10.50;;;7.32;;
19671;SDS011;9983;51.114;13.788;2023-08-07T03:11:38;5.50;;;3.42;;
19671;SDS011;9983;51.114;13.788;2023-08-07T03:16:38;4.27;;;3.00;;
19671;SDS011;9983;51.114;13.788;2023-08-07T03:21:38;3.15;;;2.63;;
19671;SDS011;9983;51.114;13.788;2023-08-07T03:26:38;3.38;;;3.08;;
19671;SDS011;9983;51.114;13.788;2023-08-07T03:31:39;4.07;;;3.10;;
19671;SDS011;9983;51.114;13.788;2023-08-07T03:36:39;2.97;;;2.78;;
19671;SDS011;9983;51.114;13.788;2023-08-07T03:41:39;3.13;;;2.83;;
19671;SDS011;9983;51.114;13.788;2023-08-07T03:46:40;5.80;;;3.17;;
19671;SDS011;9983;51.114;13.788;2023-08-07T03:51:40;3.60;;;3.30;;
19671;SDS011;9983;51.114;13.788;2023-08-07T03:56:40;5.25;;;3.72;;
19671;SDS011;9983;51.114;13.788;2023-08-07T04:01:40;3.95;;;3.65;;
19671;SDS011;9983;51.114;13.788;2023-08-07T04:06:41;4.43;;;4.03;;
19671;SDS011;9983;51.114;13.788;2023-08-07T04:11:41;4.88;;;4.35;;
19671;SDS011;9983;51.114;13.788;2023-08-07T04:16:41;5.88;;;4.57;;
19671;SDS011;9983;51.114;13.788;2023-08-07T04:21:42;6.28;;;5.38;;
19671;SDS011;9983;51.114;13.788;2023-08-07T04:26:42;8.70;;;6.15;;
19671;SDS011;9983;51.114;13.788;2023-08-07T04:31:42;8.52;;;6.90;;
19671;SDS011;9983;51.114;13.788;2023-08-07T04:36:42;9.93;;;7.80;;
19671;SDS011;9983;51.114;13.788;2023-08-07T04:41:43;9.73;;;7.95;;
19671;SDS011;9983;51.114;13.788;2023-08-07T04:46:43;9.85;;;8.85;;
19671;SDS011;9983;51.114;13.788;2023-08-07T04:51:43;9.75;;;8.50;;
19671;SDS011;9983;51.114;13.788;2023-08-07T04:56:43;11.15;;;9.82;;
19671;SDS011;9983;51.114;13.788;2023-08-07T05:01:44;13.82;;;9.05;;
19671;SDS011;9983;51.114;13.788;2023-08-07T05:06:44;11.38;;;8.82;;
19671;SDS011;9983;51.114;13.788;2023-08-07T05:11:45;12.38;;;9.43;;
19671;SDS011;9983;51.114;13.788;2023-08-07T05:16:45;12.18;;;9.73;;
19671;SDS011;9983;51.114;13.788;2023-08-07T05:21:46;9.90;;;8.00;;
19671;SDS011;9983;51.114;13.788;2023-08-07T05:26:49;10.40;;;9.23;;
19671;SDS011;9983;51.114;13.788;2023-08-07T05:31:50;9.70;;;8.73;;
19671;SDS011;9983;51.114;13.788;2023-08-07T05:36:50;9.75;;;8.88;;
19671;SDS011;9983;51.114;13.788;2023-08-07T05:41:50;8.80;;;7.90;;
19671;SDS011;9983;51.114;13.788;2023-08-07T05:46:53;9.25;;;8.35;;
19671;SDS011;9983;51.114;13.788;2023-08-07T05:51:53;11.07;;;7.82;;
19671;SDS011;9983;51.114;13.788;2023-08-07T05:56:54;9.50;;;8.32;;
19671;SDS011;9983;51.114;13.788;2023-08-07T06:01:54;7.18;;;6.50;;
19671;SDS011;9983;51.114;13.788;2023-08-07T06:06:54;7.03;;;6.50;;
19671;SDS011;9983;51.114;13.788;2023-08-07T06:11:55;6.50;;;5.90;;
19671;SDS011;9983;51.114;13.788;2023-08-07T06:16:56;6.68;;;6.18;;
19671;SDS011;9983;51.114;13.788;2023-08-07T06:21:58;7.43;;;6.15;;
19671;SDS011;9983;51.114;13.788;2023-08-07T06:26:58;7.72;;;6.38;;
19671;SDS011;9983;51.114;13.788;2023-08-07T06:31:58;5.57;;;5.07;;
19671;SDS011;9983;51.114;13.788;2023-08-07T06:36:58;5.32;;;4.93;;
19671;SDS011;9983;51.114;13.788;2023-08-07T06:41:59;6.13;;;4.82;;
19671;SDS011;9983;51.114;13.788;2023-08-07T06:47:00;4.35;;;4.05;;
19671;SDS011;9983;51.114;13.788;2023-08-07T06:52:01;4.33;;;3.93;;
19671;SDS011;9983;51.114;13.788;2023-08-07T06:57:02;5.13;;;4.05;;
19671;SDS011;9983;51.114;13.788;2023-08-07T07:02:02;4.13;;;3.83;;
19671;SDS011;9983;51.114;13.788;2023-08-07T07:07:03;3.92;;;3.50;;
19671;SDS011;9983;51.114;13.788;2023-08-07T07:12:03;3.22;;;3.03;;
19671;SDS011;9983;51.114;13.788;2023-08-07T07:17:04;3.08;;;2.80;;
19671;SDS011;9983;51.114;13.788;2023-08-07T07:22:04;3.08;;;2.80;;
19671;SDS011;9983;51.114;13.788;2023-08-07T07:27:05;3.10;;;2.80;;
19671;SDS011;9983;51.114;13.788;2023-08-07T07:32:05;3.30;;;3.00;;
19671;SDS011;9983;51.114;13.788;2023-08-07T07:37:06;3.35;;;2.97;;
19671;SDS011;9983;51.114;13.788;2023-08-07T07:42:07;4.27;;;3.10;;
19671;SDS011;9983;51.114;13.788;2023-08-07T07:47:08;2.88;;;2.67;;
19671;SDS011;9983;51.114;13.788;2023-08-07T07:52:08;3.72;;;2.47;;
19671;SDS011;9983;51.114;13.788;2023-08-07T07:57:08;3.60;;;2.47;;
19671;SDS011;9983;51.114;13.788;2023-08-07T08:02:09;2.25;;;2.13;;
19671;SDS011;9983;51.114;13.788;2023-08-07T08:07:09;2.95;;;2.45;;
19671;SDS011;9983;51.114;13.788;2023-08-07T08:12:10;2.08;;;1.80;;
19671;SDS011;9983;51.114;13.788;2023-08-07T08:17:10;1.67;;;1.58;;
19671;SDS011;9983;51.114;13.788;2023-08-07T08:22:11;1.98;;;1.85;;
19671;SDS011;9983;51.114;13.788;2023-08-07T08:27:11;2.42;;;1.77;;
19671;SDS011;9983;51.114;13.788;2023-08-07T08:32:11;1.80;;;1.70;;
19671;SDS011;9983;51.114;13.788;2023-08-07T08:37:11;1.63;;;1.52;;
19671;SDS011;9983;51.114;13.788;2023-08-07T08:42:12;1.80;;;1.50;;
19671;SDS011;9983;51.114;13.788;2023-08-07T08:47:17;2.40;;;2.20;;
19671;SDS011;9983;51.114;13.788;2023-08-07T08:52:18;2.95;;;1.77;;
19671;SDS011;9983;51.114;13.788;2023-08-07T08:57:18;1.92;;;1.83;;
19671;SDS011;9983;51.114;13.788;2023-08-07T09:02:19;1.88;;;1.70;;
19671;SDS011;9983;51.114;13.788;2023-08-07T09:07:19;1.83;;;1.50;;
19671;SDS011;9983;51.114;13.788;2023-08-07T09:12:20;1.80;;;1.70;;
19671;SDS011;9983;51.114;13.788;2023-08-07T09:17:28;1.58;;;1.48;;
19671;SDS011;9983;51.114;13.788;2023-08-07T09:22:31;1.55;;;1.45;;
19671;SDS011;9983;51.114;13.788;2023-08-07T09:27:31;1.52;;;1.38;;
19671;SDS011;9983;51.114;13.788;2023-08-07T09:32:31;1.48;;;1.30;;
19671;SDS011;9983;51.114;13.788;2023-08-07T09:37:32;1.27;;;1.27;;
19671;SDS011;9983;51.114;13.788;2023-08-07T09:42:32;1.35;;;1.20;;
19671;SDS011;9983;51.114;13.788;2023-08-07T09:47:33;1.75;;;1.20;;
19671;SDS011;9983;51.114;13.788;2023-08-07T09:52:33;1.30;;;1.20;;
19671;SDS011;9983;51.114;13.788;2023-08-07T09:57:33;1.63;;;1.20;;
19671;SDS011;9983;51.114;13.788;2023-08-07T10:02:34;5.20;;;1.20;;
19671;SDS011;9983;51.114;13.788;2023-08-07T10:07:34;1.48;;;0.95;;
19671;SDS011;9983;51.114;13.788;2023-08-07T10:12:35;1.23;;;1.15;;
19671;SDS011;9983;51.114;13.788;2023-08-07T10:17:36;1.27;;;1.10;;
19671;SDS011;9983;51.114;13.788;2023-08-07T10:22:37;1.00;;;1.00;;
19671;SDS011;9983;51.114;13.788;2023-08-07T10:27:39;1.73;;;1.08;;
19671;SDS011;9983;51.114;13.788;2023-08-07T10:32:42;1.05;;;1.00;;
19671;SDS011;9983;51.114;13.788;2023-08-07T10:37:44;1.65;;;1.02;;
19671;SDS011;9983;51.114;13.788;2023-08-07T10:48:07;2.13;;;0.90;;
19671;SDS011;9983;51.114;13.788;2023-08-07T10:53:09;0.90;;;0.90;;
19671;SDS011;9983;51.114;13.788;2023-08-07T10:58:20;1.30;;;0.93;;
19671;SDS011;9983;51.114;13.788;2023-08-07T11:03:34;1.48;;;1.35;;
19671;SDS011;9983;51.114;13.788;2023-08-07T11:08:36;1.50;;;1.40;;
19671;SDS011;9983;51.114;13.788;2023-08-07T11:13:36;1.40;;;1.10;;
19671;SDS011;9983;51.114;13.788;2023-08-07T11:18:37;0.90;;;0.90;;
19671;SDS011;9983;51.114;13.788;2023-08-07T11:23:41;1.20;;;1.10;;
19671;SDS011;9983;51.114;13.788;2023-08-07T11:28:41;1.33;;;1.23;;
19671;SDS011;9983;51.114;13.788;2023-08-07T11:33:41;1.00;;;1.00;;
19671;SDS011;9983;51.114;13.788;2023-08-07T11:38:42;2.90;;;1.20;;
19671;SDS011;9983;51.114;13.788;2023-08-07T11:43:44;1.20;;;1.10;;
19671;SDS011;9983;51.114;13.788;2023-08-07T11:48:45;1.20;;;1.10;;
19671;SDS011;9983;51.114;13.788;2023-08-07T11:53:45;1.50;;;1.40;;
19671;SDS011;9983;51.114;13.788;2023-08-07T11:58:47;1.40;;;1.25;;
19671;SDS011;9983;51.114;13.788;2023-08-07T12:08:56;2.25;;;1.70;;
19671;SDS011;9983;51.114;13.788;2023-08-07T12:13:59;2.17;;;1.35;;
19671;SDS011;9983;51.114;13.788;2023-08-07T12:19:00;1.00;;;1.00;;
19671;SDS011;9983;51.114;13.788;2023-08-07T12:24:01;1.45;;;1.00;;
19671;SDS011;9983;51.114;13.788;2023-08-07T12:29:02;0.80;;;0.80;;
19671;SDS011;9983;51.114;13.788;2023-08-07T12:34:02;1.55;;;0.93;;
19671;SDS011;9983;51.114;13.788;2023-08-07T12:39:02;2.58;;;0.90;;
19671;SDS011;9983;51.114;13.788;2023-08-07T12:44:03;0.70;;;0.70;;
19671;SDS011;9983;51.114;13.788;2023-08-07T12:49:03;0.60;;;0.60;;
19671;SDS011;9983;51.114;13.788;2023-08-07T12:54:03;1.13;;;0.80;;
19671;SDS011;9983;51.114;13.788;2023-08-07T12:59:04;1.38;;;0.90;;
19671;SDS011;9983;51.114;13.788;2023-08-07T13:04:04;0.52;;;0.52;;
19671;SDS011;9983;51.114;13.788;2023-08-07T13:09:05;0.70;;;0.70;;
19671;SDS011;9983;51.114;13.788;2023-08-07T13:14:06;0.75;;;0.75;;
19671;SDS011;9983;51.114;13.788;2023-08-07T13:19:06;0.90;;;0.63;;
19671;SDS011;9983;51.114;13.788;2023-08-07T13:24:06;0.88;;;0.85;;
19671;SDS011;9983;51.114;13.788;2023-08-07T13:29:06;1.95;;;0.75;;
19671;SDS011;9983;51.114;13.788;2023-08-07T13:34:08;1.08;;;0.60;;
19671;SDS011;9983;51.114;13.788;2023-08-07T13:39:10;0.85;;;0.80;;
19671;SDS011;9983;51.114;13.788;2023-08-07T13:44:10;1.10;;;1.00;;
19671;SDS011;9983;51.114;13.788;2023-08-07T13:49:11;0.73;;;0.73;;
19671;SDS011;9983;51.114;13.788;2023-08-07T13:54:12;2.83;;;0.88;;
19671;SDS011;9983;51.114;13.788;2023-08-07T13:59:12;1.75;;;1.00;;
19671;SDS011;9983;51.114;13.788;2023-08-07T14:04:12;3.23;;;1.23;;
19671;SDS011;9983;51.114;13.788;2023-08-07T14:09:14;2.20;;;0.98;;
19671;SDS011;9983;51.114;13.788;2023-08-07T14:14:14;1.60;;;1.50;;
19671;SDS011;9983;51.114;13.788;2023-08-07T14:19:14;1.08;;;0.98;;
19671;SDS011;9983;51.114;13.788;2023-08-07T14:24:15;1.10;;;0.90;;
19671;SDS011;9983;51.114;13.788;2023-08-07T14:29:17;1.20;;;1.10;;
19671;SDS011;9983;51.114;13.788;2023-08-07T14:34:17;1.10;;;0.98;;
19671;SDS011;9983;51.114;13.788;2023-08-07T14:39:17;1.35;;;1.08;;
19671;SDS011;9983;51.114;13.788;2023-08-07T14:44:17;3.13;;;0.90;;
19671;SDS011;9983;51.114;13.788;2023-08-07T14:49:18;2.60;;;0.82;;
19671;SDS011;9983;51.114;13.788;2023-08-07T14:54:18;0.70;;;0.70;;
19671;SDS011;9983;51.114;13.788;2023-08-07T14:59:18;1.10;;;0.80;;
19671;SDS011;9983;51.114;13.788;2023-08-07T15:04:18;1.27;;;0.90;;
19671;SDS011;9983;51.114;13.788;2023-08-07T15:09:19;0.93;;;0.90;;
19671;SDS011;9983;51.114;13.788;2023-08-07T15:14:19;1.48;;;0.90;;
19671;SDS011;9983;51.114;13.788;2023-08-07T15:19:19;0.80;;;0.80;;
19671;SDS011;9983;51.114;13.788;2023-08-07T15:24:20;0.80;;;0.80;;
19671;SDS011;9983;51.114;13.788;2023-08-07T15:29:20;1.88;;;1.13;;
19671;SDS011;9983;51.114;13.788;2023-08-07T15:34:20;2.05;;;1.00;;
19671;SDS011;9983;51.114;13.788;2023-08-07T15:39:21;0.80;;;0.80;;
19671;SDS011;9983;51.114;13.788;2023-08-07T15:44:21;0.90;;;0.90;;
19671;SDS011;9983;51.114;13.788;2023-08-07T15:49:21;0.90;;;0.85;;
19671;SDS011;9983;51.114;13.788;2023-08-07T15:54:23;1.00;;;0.85;;
19671;SDS011;9983;51.114;13.788;2023-08-07T15:59:23;3.60;;;0.80;;
19671;SDS011;9983;51.114;13.788;2023-08-07T16:04:26;1.60;;;0.70;;
19671;SDS011;9983;51.114;13.788;2023-08-07T16:09:26;0.90;;;0.90;;
19671;SDS011;9983;51.114;13.788;2023-08-07T16:14:27;2.20;;;1.10;;
19671;SDS011;9983;51.114;13.788;2023-08-07T16:19:27;1.02;;;1.02;;
19671;SDS011;9983;51.114;13.788;2023-08-07T16:24:28;2.13;;;1.20;;
19671;SDS011;9983;51.114;13.788;2023-08-07T16:29:28;1.42;;;1.30;;
19671;SDS011;9983;51.114;13.788;2023-08-07T16:34:28;1.57;;;1.03;;
19671;SDS011;9983;51.114;13.788;2023-08-07T16:39:28;2.53;;;1.10;;
19671;SDS011;9983;51.114;13.788;2023-08-07T16:44:29;1.58;;;1.38;;
19671;SDS011;9983;51.114;13.788;2023-08-07T16:49:29;2.83;;;1.50;;
19671;SDS011;9983;51.114;13.788;2023-08-07T16:54:30;2.47;;;1.05;;
19671;SDS011;9983;51.114;13.788;2023-08-07T16:59:30;1.30;;;1.00;;
19671;SDS011;9983;51.114;13.788;2023-08-07T17:04:31;1.33;;;1.10;;
19671;SDS011;9983;51.114;13.788;2023-08-07T17:09:32;1.38;;;1.27;;
19671;SDS011;9983;51.114;13.788;2023-08-07T17:14:32;1.83;;;1.58;;
19671;SDS011;9983;51.114;13.788;2023-08-07T17:19:32;1.57;;;1.37;;
19671;SDS011;9983;51.114;13.788;2023-08-07T17:24:33;1.93;;;1.50;;
19671;SDS011;9983;51.114;13.788;2023-08-07T17:29:33;2.20;;;1.70;;
19671;SDS011;9983;51.114;13.788;2023-08-07T17:34:33;2.00;;;1.60;;
19671;SDS011;9983;51.114;13.788;2023-08-07T17:39:34;2.47;;;1.77;;
19671;SDS011;9983;51.114;13.788;2023-08-07T17:44:34;1.60;;;1.50;;
19671;SDS011;9983;51.114;13.788;2023-08-07T17:49:34;2.72;;;1.73;;
19671;SDS011;9983;51.114;13.788;2023-08-07T17:54:37;3.67;;;1.42;;
19671;SDS011;9983;51.114;13.788;2023-08-07T17:59:38;1.92;;;1.60;;
19671;SDS011;9983;51.114;13.788;2023-08-07T18:04:38;3.50;;;2.17;;
19671;SDS011;9983;51.114;13.788;2023-08-07T18:09:41;1.75;;;1.50;;
19671;SDS011;9983;51.114;13.788;2023-08-07T18:14:42;2.28;;;1.42;;
19671;SDS011;9983;51.114;13.788;2023-08-07T18:19:42;3.63;;;1.98;;
19671;SDS011;9983;51.114;13.788;2023-08-07T18:24:42;10.35;;;5.65;;
19671;SDS011;9983;51.114;13.788;2023-08-07T18:29:43;6.72;;;2.38;;
19671;SDS011;9983;51.114;13.788;2023-08-07T18:34:44;6.20;;;2.10;;
19671;SDS011;9983;51.114;13.788;2023-08-07T18:39:44;3.10;;;1.90;;
19671;SDS011;9983;51.114;13.788;2023-08-07T18:44:45;5.00;;;2.15;;
19671;SDS011;9983;51.114;13.788;2023-08-07T18:49:45;4.75;;;1.98;;
19671;SDS011;9983;51.114;13.788;2023-08-07T18:54:45;4.82;;;1.90;;
19671;SDS011;9983;51.114;13.788;2023-08-07T18:59:45;2.85;;;2.20;;
19671;SDS011;9983;51.114;13.788;2023-08-07T19:04:46;3.47;;;2.05;;
19671;SDS011;9983;51.114;13.788;2023-08-07T19:09:46;3.00;;;2.13;;
19671;SDS011;9983;51.114;13.788;2023-08-07T19:14:46;3.00;;;2.25;;
19671;SDS011;9983;51.114;13.788;2023-08-07T19:19:46;4.85;;;2.70;;
19671;SDS011;9983;51.114;13.788;2023-08-07T19:24:47;9.73;;;2.45;;
19671;SDS011;9983;51.114;13.788;2023-08-07T19:29:47;3.50;;;2.60;;
19671;SDS011;9983;51.114;13.788;2023-08-07T19:34:47;5.78;;;2.78;;
19671;SDS011;9983;51.114;13.788;2023-08-07T19:39:47;7.55;;;2.90;;
19671;SDS011;9983;51.114;13.788;2023-08-07T19:44:48;7.28;;;3.05;;
19671;SDS011;9983;51.114;13.788;2023-08-07T19:49:48;7.65;;;2.58;;
19671;SDS011;9983;51.114;13.788;2023-08-07T19:54:49;4.18;;;3.13;;
19671;SDS011;9983;51.114;13.788;2023-08-07T19:59:49;3.05;;;2.42;;
19671;SDS011;9983;51.114;13.788;2023-08-07T20:04:49;5.45;;;2.55;;
19671;SDS011;9983;51.114;13.788;2023-08-07T20:09:50;6.05;;;2.65;;
19671;SDS011;9983;51.114;13.788;2023-08-07T20:14:50;4.00;;;2.60;;
19671;SDS011;9983;51.114;13.788;2023-08-07T20:19:51;5.25;;;3.05;;
19671;SDS011;9983;51.114;13.788;2023-08-07T20:24:51;5.35;;;2.60;;
19671;SDS011;9983;51.114;13.788;2023-08-07T20:29:51;4.95;;;2.47;;
19671;SDS011;9983;51.114;13.788;2023-08-07T20:34:52;4.20;;;2.50;;
19671;SDS011;9983;51.114;13.788;2023-08-07T20:39:52;2.20;;;2.00;;
19671;SDS011;9983;51.114;13.788;2023-08-07T20:44:53;5.95;;;2.53;;
19671;SDS011;9983;51.114;13.788;2023-08-07T20:49:53;5.17;;;2.40;;
19671;SDS011;9983;51.114;13.788;2023-08-07T20:54:53;4.03;;;2.30;;
19671;SDS011;9983;51.114;13.788;2023-08-07T20:59:54;3.50;;;2.15;;
19671;SDS011;9983;51.114;13.788;2023-08-07T21:04:54;3.30;;;2.87;;
19671;SDS011;9983;51.114;13.788;2023-08-07T21:09:54;3.75;;;2.28;;
19671;SDS011;9983;51.114;13.788;2023-08-07T21:14:58;6.35;;;2.53;;
19671;SDS011;9983;51.114;13.788;2023-08-07T21:19:58;4.17;;;2.17;;
19671;SDS011;9983;51.114;13.788;2023-08-07T21:24:58;3.40;;;2.13;;
19671;SDS011;9983;51.114;13.788;2023-08-07T21:29:59;4.57;;;2.22;;
19671;SDS011;9983;51.114;13.788;2023-08-07T21:34:59;5.00;;;2.28;;
19671;SDS011;9983;51.114;13.788;2023-08-07T21:39:59;2.72;;;2.10;;
19671;SDS011;9983;51.114;13.788;2023-08-07T21:45:00;3.92;;;2.20;;
19671;SDS011;9983;51.114;13.788;2023-08-07T21:50:00;4.07;;;2.20;;
19671;SDS011;9983;51.114;13.788;2023-08-07T21:55:01;6.32;;;2.05;;
19671;SDS011;9983;51.114;13.788;2023-08-07T22:00:01;3.67;;;2.13;;
19671;SDS011;9983;51.114;13.788;2023-08-07T22:05:05;3.92;;;2.28;;
19671;SDS011;9983;51.114;13.788;2023-08-07T22:10:07;1.95;;;1.77;;
19671;SDS011;9983;51.114;13.788;2023-08-07T22:15:08;4.38;;;1.95;;
19671;SDS011;9983;51.114;13.788;2023-08-07T22:20:09;5.30;;;2.42;;
19671;SDS011;9983;51.114;13.788;2023-08-07T22:25:12;5.30;;;2.00;;
19671;SDS011;9983;51.114;13.788;2023-08-07T22:30:12;3.30;;;2.13;;
19671;SDS011;9983;51.114;13.788;2023-08-07T22:35:14;4.43;;;2.25;;
19671;SDS011;9983;51.114;13.788;2023-08-07T22:40:14;4.55;;;2.65;;
19671;SDS011;9983;51.114;13.788;2023-08-07T22:45:15;3.92;;;2.42;;
19671;SDS011;9983;51.114;13.788;2023-08-07T22:50:17;2.53;;;2.33;;
19671;SDS011;9983;51.114;13.788;2023-08-07T22:55:17;4.30;;;2.30;;
19671;SDS011;9983;51.114;13.788;2023-08-07T23:00:18;2.58;;;2.13;;
19671;SDS011;9983;51.114;13.788;2023-08-07T23:05:18;5.30;;;2.42;;
19671;SDS011;9983;51.114;13.788;2023-08-07T23:10:18;3.33;;;2.10;;
19671;SDS011;9983;51.114;13.788;2023-08-07T23:15:19;3.60;;;2.10;;
19671;SDS011;9983;51.114;13.788;2023-08-07T23:20:19;5.78;;;2.10;;
19671;SDS011;9983;51.114;13.788;2023-08-07T23:25:20;5.10;;;2.07;;
19671;SDS011;9983;51.114;13.788;2023-08-07T23:30:20;2.72;;;2.15;;
19671;SDS011;9983;51.114;13.788;2023-08-07T23:35:20;4.50;;;2.55;;
19671;SDS011;9983;51.114;13.788;2023-08-07T23:40:21;5.45;;;2.20;;
19671;SDS011;9983;51.114;13.788;2023-08-07T23:45:21;4.47;;;2.30;;
19671;SDS011;9983;51.114;13.788;2023-08-07T23:50:21;4.82;;;2.22;;
19671;SDS011;9983;51.114;13.788;2023-08-07T23:55:21;3.97;;;2.53;;
